createdAt,value
2023-06-11T00:01:28.645Z,44.90
2023-06-11T00:03:56.117Z,45.00
2023-06-11T00:06:24.833Z,44.40
2023-06-11T00:08:53.276Z,45.90
2023-06-11T00:11:21.695Z,44.80
2023-06-11T00:13:49.624Z,45.20
2023-06-11T00:16:17.002Z,44.50
2023-06-11T00:18:44.600Z,44.00
2023-06-11T00:21:13.519Z,45.10
2023-06-11T00:23:40.479Z,45.50
2023-06-11T00:26:11.348Z,45.30
2023-06-11T00:28:38.484Z,45.50
2023-06-11T00:31:05.541Z,45.80
2023-06-11T00:33:32.643Z,46.10
2023-06-11T00:35:59.668Z,45.10
2023-06-11T00:38:26.616Z,45.40
2023-06-11T00:40:53.567Z,46.10
2023-06-11T00:43:24.388Z,45.30
2023-06-11T00:45:52.581Z,46.20
2023-06-11T00:48:21.278Z,45.90
2023-06-11T00:50:52.704Z,45.60
2023-06-11T00:53:23.275Z,46.70
2023-06-11T00:55:50.585Z,45.60
2023-06-11T00:58:18.945Z,45.90
2023-06-11T01:00:56.353Z,44.40
2023-06-11T01:03:28.501Z,45.00
2023-06-11T01:06:07.096Z,44.20
2023-06-11T01:08:41.904Z,43.90
2023-06-11T01:11:18.699Z,43.50
2023-06-11T01:13:45.565Z,43.40
2023-06-11T01:16:35.925Z,43.90
2023-06-11T01:19:32.828Z,44.50
2023-06-11T01:22:05.458Z,43.20
2023-06-11T01:25:00.207Z,41.40
2023-06-11T01:27:59.450Z,41.80
2023-06-11T01:30:27.163Z,41.90
2023-06-11T01:32:57.064Z,40.60
2023-06-11T01:35:24.836Z,41.50
2023-06-11T01:37:56.821Z,41.10
2023-06-11T01:40:24.383Z,40.10
2023-06-11T01:42:51.648Z,39.40
2023-06-11T01:45:19.395Z,38.20
2023-06-11T01:47:50.563Z,38.10
2023-06-11T01:50:18.492Z,38.00
2023-06-11T01:52:45.946Z,37.40
2023-06-11T01:55:13.567Z,37.00
2023-06-11T01:57:41.729Z,36.30
2023-06-11T02:00:12.402Z,35.50
2023-06-11T02:02:47.768Z,33.70
2023-06-11T02:05:14.968Z,34.50
2023-06-11T02:07:42.070Z,33.00
2023-06-11T02:10:09.329Z,34.10
2023-06-11T02:12:36.365Z,33.70
2023-06-11T02:15:03.733Z,32.80
2023-06-11T02:17:30.689Z,32.50
2023-06-11T02:19:57.587Z,31.50
2023-06-11T02:22:24.454Z,31.20
2023-06-11T02:24:52.218Z,31.80
2023-06-11T02:27:19.075Z,31.20
2023-06-11T02:29:45.960Z,31.30
2023-06-11T02:32:13.296Z,30.90
2023-06-11T02:34:40.266Z,29.30
2023-06-11T02:37:07.527Z,29.80
2023-06-11T02:39:34.509Z,29.70
2023-06-11T02:42:01.521Z,29.90
2023-06-11T02:44:28.353Z,29.30
2023-06-11T02:46:55.342Z,29.60
2023-06-11T02:49:22.334Z,29.30
2023-06-11T02:51:49.240Z,29.20
2023-06-11T02:54:16.492Z,29.40
2023-06-11T02:56:43.338Z,30.30
2023-06-11T02:59:10.387Z,30.00
2023-06-11T03:01:39.815Z,29.70
2023-06-11T03:04:07.201Z,29.60
2023-06-11T03:06:34.769Z,29.90
2023-06-11T03:09:01.740Z,29.40
2023-06-11T03:11:28.857Z,29.60
2023-06-11T03:13:55.807Z,28.40
2023-06-11T03:16:22.845Z,28.60
2023-06-11T03:18:49.703Z,28.00
2023-06-11T03:21:16.587Z,28.80
2023-06-11T03:23:43.529Z,27.90
2023-06-11T03:26:10.476Z,27.50
2023-06-11T03:28:37.343Z,27.00
2023-06-11T03:31:04.575Z,27.40
2023-06-11T03:33:31.455Z,26.70
2023-06-11T03:35:58.313Z,25.50
2023-06-11T03:38:25.256Z,25.30
2023-06-11T03:40:52.356Z,25.30
2023-06-11T03:43:19.285Z,24.10
2023-06-11T03:45:46.182Z,23.60
2023-06-11T03:48:13.023Z,24.30
2023-06-11T03:50:39.846Z,23.80
2023-06-11T03:53:07.725Z,24.40
2023-06-11T03:55:34.834Z,24.30
2023-06-11T03:58:01.708Z,23.70
2023-06-11T04:00:32.037Z,23.10
2023-06-11T04:03:00.455Z,22.50
2023-06-11T04:05:27.456Z,22.10
2023-06-11T04:07:54.416Z,21.50
2023-06-11T04:10:21.609Z,20.60
2023-06-11T04:12:48.968Z,21.20
2023-06-11T04:15:15.916Z,20.20
2023-06-11T04:17:42.825Z,20.00
2023-06-11T04:20:10.144Z,19.70
2023-06-11T04:22:37.219Z,19.00
2023-06-11T04:25:04.280Z,19.10
2023-06-11T04:27:34.815Z,18.10
2023-06-11T04:30:03.599Z,18.30
2023-06-11T04:32:35.775Z,17.60
2023-06-11T04:35:04.127Z,17.00
2023-06-11T04:37:39.357Z,16.80
2023-06-11T04:40:11.462Z,16.20
2023-06-11T04:42:41.701Z,15.70
2023-06-11T04:45:11.164Z,16.70
2023-06-11T04:47:38.796Z,15.60
2023-06-11T04:50:06.628Z,15.90
2023-06-11T04:52:36.223Z,15.10
2023-06-11T04:55:04.525Z,14.10
2023-06-11T04:57:35.152Z,14.10
2023-06-11T05:00:03.777Z,14.10
2023-06-11T05:02:30.695Z,13.10
2023-06-11T05:04:58.883Z,12.70
2023-06-11T05:07:25.922Z,12.10
2023-06-11T05:09:52.846Z,11.10
2023-06-11T05:12:19.700Z,11.30
2023-06-11T05:14:46.623Z,10.60
2023-06-11T05:17:14.309Z,10.40
2023-06-11T05:19:41.610Z,10.90
2023-06-11T05:22:08.871Z,10.40
2023-06-11T05:24:35.900Z,9.50
2023-06-11T05:27:05.096Z,10.10
2023-06-11T05:29:32.256Z,10.40
2023-06-11T05:31:59.634Z,9.10
2023-06-11T05:34:27.272Z,8.90
2023-06-11T05:36:54.396Z,8.80
2023-06-11T05:39:21.830Z,8.90
2023-06-11T05:41:48.698Z,9.40
2023-06-11T05:44:17.510Z,8.70
2023-06-11T05:46:44.828Z,9.00
2023-06-11T05:49:11.836Z,8.50
2023-06-11T05:51:38.732Z,8.80
2023-06-11T05:54:05.788Z,9.00
2023-06-11T05:56:32.659Z,8.50
2023-06-11T05:58:59.784Z,9.00
2023-06-11T06:01:26.677Z,8.60
2023-06-11T06:03:53.763Z,8.00
2023-06-11T06:06:20.789Z,7.80
2023-06-11T06:08:47.757Z,7.60
2023-06-11T06:11:14.673Z,7.60
2023-06-11T06:13:41.562Z,7.20
2023-06-11T06:16:08.781Z,7.40
2023-06-11T06:18:36.318Z,7.90
2023-06-11T06:21:03.241Z,8.30
2023-06-11T06:23:30.428Z,7.70
2023-06-11T06:25:57.294Z,8.10
2023-06-11T06:28:24.151Z,7.60
2023-06-11T06:30:51.374Z,5.80
2023-06-11T06:33:18.403Z,6.70
2023-06-11T06:35:45.407Z,6.50
2023-06-11T06:38:12.299Z,6.90
2023-06-11T06:40:39.143Z,7.60
2023-06-11T06:43:06.153Z,7.00
2023-06-11T06:45:34.717Z,7.50
2023-06-11T06:48:01.883Z,7.80
2023-06-11T06:50:28.885Z,7.50
2023-06-11T06:52:55.949Z,6.30
2023-06-11T06:55:22.919Z,7.50
2023-06-11T06:57:49.765Z,7.00
2023-06-11T07:00:17.380Z,6.70
2023-06-11T07:02:47.699Z,6.20
2023-06-11T07:05:14.645Z,7.30
2023-06-11T07:07:43.572Z,6.80
2023-06-11T07:10:11.567Z,5.80
2023-06-11T07:12:38.753Z,6.90
2023-06-11T07:15:06.140Z,6.70
2023-06-11T07:17:33.071Z,5.80
2023-06-11T07:20:00.003Z,5.90
2023-06-11T07:22:26.929Z,5.60
2023-06-11T07:24:53.854Z,4.20
2023-06-11T07:27:20.795Z,5.30
2023-06-11T07:29:48.015Z,5.00
2023-06-11T07:32:14.926Z,4.10
2023-06-11T07:34:43.496Z,3.30
2023-06-11T07:37:10.579Z,3.40
2023-06-11T07:39:37.433Z,3.50
2023-06-11T07:42:06.425Z,2.80
2023-06-11T07:44:33.364Z,2.30
2023-06-11T07:47:00.694Z,2.30
2023-06-11T07:49:27.639Z,1.90
2023-06-11T07:51:54.690Z,1.00
2023-06-11T07:54:21.569Z,1.00
2023-06-11T07:56:48.446Z,1.00
2023-06-11T07:59:16.586Z,1.00
2023-06-11T08:01:43.391Z,1.00
2023-06-11T08:04:10.193Z,1.00
2023-06-11T08:06:37.763Z,1.00
2023-06-11T08:09:05.089Z,1.00
2023-06-11T08:11:31.877Z,1.00
2023-06-11T08:13:58.685Z,1.00
2023-06-11T08:16:25.468Z,1.00
2023-06-11T08:18:52.235Z,1.00
2023-06-11T08:21:19.046Z,1.00
2023-06-11T08:23:45.859Z,1.00
2023-06-11T08:26:13.480Z,1.00
2023-06-11T08:28:40.589Z,1.00
2023-06-11T08:31:07.607Z,1.00
2023-06-11T08:33:34.529Z,1.00
2023-06-11T08:36:01.488Z,1.00
2023-06-11T08:38:29.329Z,1.00
2023-06-11T08:40:56.350Z,1.00
2023-06-11T08:43:23.455Z,1.00
2023-06-11T08:45:50.243Z,1.00
2023-06-11T08:48:21.237Z,1.00
2023-06-11T08:50:51.376Z,1.00
2023-06-11T08:53:18.331Z,1.00
2023-06-11T08:55:46.705Z,1.00
2023-06-11T08:58:14.470Z,1.00
2023-06-11T09:00:41.378Z,1.00
2023-06-11T09:03:09.545Z,1.00
2023-06-11T09:05:36.813Z,1.00
2023-06-11T09:08:08.643Z,1.00
2023-06-11T09:10:38.220Z,1.00
2023-06-11T09:13:08.716Z,1.00
2023-06-11T09:15:35.470Z,1.00
2023-06-11T09:18:03.013Z,1.00
2023-06-11T09:20:32.497Z,1.00
2023-06-11T09:22:59.289Z,1.00
2023-06-11T09:25:32.265Z,1.00
2023-06-11T09:28:06.454Z,1.00
2023-06-11T09:30:33.267Z,1.00
2023-06-11T09:33:00.135Z,1.00
2023-06-11T09:35:26.994Z,1.00
2023-06-11T09:37:54.106Z,1.00
2023-06-11T09:40:24.390Z,1.00
2023-06-11T09:42:52.027Z,1.00
2023-06-11T09:45:20.509Z,1.00
2023-06-11T09:47:50.071Z,1.00
2023-06-11T09:50:19.032Z,1.00
2023-06-11T09:52:46.891Z,1.00
2023-06-11T09:55:14.636Z,1.00
2023-06-11T09:57:43.216Z,1.00
2023-06-11T10:00:13.334Z,1.00
2023-06-11T10:02:42.571Z,1.00
2023-06-11T10:05:11.374Z,1.00
2023-06-11T10:07:47.129Z,1.00
2023-06-11T10:10:19.009Z,1.00
2023-06-11T10:12:50.845Z,1.00
2023-06-11T10:15:18.273Z,1.00
2023-06-11T10:17:48.365Z,1.00
2023-06-11T10:20:26.944Z,1.00
2023-06-11T10:23:13.035Z,1.00
2023-06-11T10:25:41.786Z,1.00
2023-06-11T10:28:10.615Z,1.00
2023-06-11T10:30:37.428Z,1.00
2023-06-11T10:33:04.454Z,1.00
2023-06-11T10:35:37.563Z,1.00
2023-06-11T10:38:06.481Z,1.00
2023-06-11T10:40:38.152Z,1.00
2023-06-11T10:43:37.217Z,1.00
2023-06-11T10:46:13.439Z,1.00
2023-06-11T10:48:51.077Z,1.00
2023-06-11T10:51:18.117Z,1.00
2023-06-11T10:53:45.001Z,1.00
2023-06-11T10:56:14.505Z,1.00
2023-06-11T10:58:42.017Z,1.00
2023-06-11T11:01:09.826Z,1.00
2023-06-11T11:03:39.654Z,1.00
2023-06-11T11:06:06.794Z,1.00
2023-06-11T11:08:33.612Z,1.00
2023-06-11T11:11:01.151Z,1.00
2023-06-11T11:13:29.969Z,1.00
2023-06-11T11:15:57.389Z,1.00
2023-06-11T11:18:24.323Z,1.00
2023-06-11T11:20:55.005Z,1.00
2023-06-11T11:23:24.086Z,1.00
2023-06-11T11:25:52.949Z,1.00
2023-06-11T11:28:19.850Z,1.00
2023-06-11T11:30:46.882Z,1.00
2023-06-11T11:33:14.001Z,1.00
2023-06-11T11:35:49.462Z,1.00
2023-06-11T11:38:16.497Z,1.00
2023-06-11T11:40:43.386Z,1.00
2023-06-11T11:43:14.658Z,1.00
2023-06-11T11:45:49.966Z,1.00
2023-06-11T11:48:17.676Z,1.00
2023-06-11T11:50:46.557Z,1.00
2023-06-11T11:53:19.564Z,1.00
2023-06-11T11:56:00.989Z,1.00
2023-06-11T11:58:43.148Z,1.00
2023-06-11T12:01:23.716Z,1.00
2023-06-11T12:04:04.418Z,1.00
2023-06-11T12:06:31.894Z,1.00
2023-06-11T12:08:59.434Z,1.00
2023-06-11T12:11:26.388Z,1.00
2023-06-11T12:13:53.306Z,1.00
2023-06-11T12:16:23.081Z,1.00
2023-06-11T12:18:50.032Z,1.00
2023-06-11T12:21:16.932Z,1.00
2023-06-11T12:23:43.837Z,1.00
2023-06-11T12:26:10.837Z,1.00
2023-06-11T12:28:37.865Z,1.00
2023-06-11T12:31:04.743Z,1.00
2023-06-11T12:33:32.176Z,1.00
2023-06-11T12:35:59.026Z,1.00
2023-06-11T12:38:26.129Z,1.00
2023-06-11T12:40:53.487Z,1.00
2023-06-11T12:43:20.636Z,1.00
2023-06-11T12:45:47.598Z,1.00
2023-06-11T12:48:16.284Z,1.00
2023-06-11T12:50:43.225Z,1.00
2023-06-11T12:53:10.124Z,1.00
2023-06-11T12:55:37.037Z,1.00
2023-06-11T12:58:05.874Z,1.00
2023-06-11T13:00:32.930Z,1.00
2023-06-11T13:03:00.050Z,1.00
2023-06-11T13:05:27.863Z,1.00
2023-06-11T13:07:55.215Z,1.00
2023-06-11T13:10:24.634Z,1.00
2023-06-11T13:12:53.858Z,1.00
2023-06-11T13:15:20.847Z,1.00
2023-06-11T13:17:47.812Z,1.00
2023-06-11T13:20:16.068Z,1.00
2023-06-11T13:22:44.942Z,1.00
2023-06-11T13:25:12.065Z,1.00
2023-06-11T13:27:38.952Z,1.00
2023-06-11T13:30:11.099Z,1.00
2023-06-11T13:32:38.594Z,1.00
2023-06-11T13:35:06.930Z,1.00
2023-06-11T13:37:34.204Z,1.00
2023-06-11T13:40:01.307Z,1.00
2023-06-11T13:42:28.225Z,1.00
2023-06-11T13:44:55.054Z,1.00
2023-06-11T13:47:22.070Z,1.00
2023-06-11T13:49:48.912Z,1.00
2023-06-11T13:52:15.779Z,1.00
2023-06-11T13:54:43.796Z,1.00
2023-06-11T13:57:11.668Z,1.00
2023-06-11T13:59:38.631Z,1.00
2023-06-11T14:02:05.762Z,1.00
2023-06-11T14:04:32.728Z,1.00
2023-06-11T14:06:59.829Z,1.00
2023-06-11T14:09:26.861Z,1.00
2023-06-11T14:11:53.910Z,1.00
2023-06-11T14:14:23.479Z,1.00
2023-06-11T14:16:51.818Z,1.00
2023-06-11T14:19:18.771Z,1.00
2023-06-11T14:21:45.805Z,1.00
2023-06-11T14:24:12.860Z,1.00
2023-06-11T14:26:39.793Z,1.00
2023-06-11T14:29:06.965Z,1.00
2023-06-11T14:31:36.299Z,1.00
2023-06-11T14:34:03.664Z,1.00
2023-06-11T14:36:31.166Z,1.00
2023-06-11T14:38:59.332Z,1.00
2023-06-11T14:41:26.283Z,1.00
2023-06-11T14:43:53.171Z,1.00
2023-06-11T14:46:20.212Z,1.00
2023-06-11T14:48:47.132Z,1.00
2023-06-11T14:51:14.019Z,1.00
2023-06-11T14:53:41.284Z,1.00
2023-06-11T14:56:08.178Z,1.00
2023-06-11T14:58:35.088Z,1.00
2023-06-11T15:01:04.298Z,1.00
2023-06-11T15:03:31.259Z,1.00
2023-06-11T15:05:58.231Z,1.00
2023-06-11T15:08:25.161Z,1.00
2023-06-11T15:10:51.997Z,1.00
2023-06-11T15:13:18.857Z,1.00
2023-06-11T15:15:45.928Z,1.00
2023-06-11T15:18:13.405Z,1.00
2023-06-11T15:20:40.305Z,1.00
2023-06-11T15:23:09.916Z,1.00
2023-06-11T15:25:38.006Z,1.00
2023-06-11T15:28:05.131Z,1.00
2023-06-11T15:30:32.026Z,1.00
2023-06-11T15:32:59.897Z,1.00
2023-06-11T15:35:27.126Z,1.00
2023-06-11T15:37:54.081Z,1.00
2023-06-11T15:40:21.028Z,1.00
2023-06-11T15:42:47.885Z,1.00
2023-06-11T15:45:15.110Z,1.00
2023-06-11T15:47:43.426Z,1.00
2023-06-11T15:50:11.174Z,1.00
2023-06-11T15:52:38.455Z,1.00
2023-06-11T15:55:05.937Z,1.00
2023-06-11T15:57:33.248Z,1.00
2023-06-11T16:00:00.351Z,1.00
2023-06-11T16:02:27.424Z,1.00
2023-06-11T16:04:54.299Z,1.00
2023-06-11T16:07:21.626Z,1.00
2023-06-11T16:09:48.570Z,1.00
2023-06-11T16:12:15.709Z,1.00
2023-06-11T16:14:43.083Z,1.00
2023-06-11T16:17:10.048Z,1.00
2023-06-11T16:19:37.008Z,1.00
2023-06-11T16:22:05.449Z,1.00
2023-06-11T16:24:33.069Z,1.00
2023-06-11T16:27:00.063Z,1.00
2023-06-11T16:29:27.003Z,1.00
2023-06-11T16:31:53.940Z,1.00
2023-06-11T16:34:20.901Z,1.00
2023-06-11T16:36:47.858Z,1.00
2023-06-11T16:39:25.383Z,1.00
2023-06-11T16:41:54.004Z,1.00
2023-06-11T16:44:21.030Z,1.00
2023-06-11T16:46:48.026Z,1.00
2023-06-11T16:49:15.087Z,1.00
2023-06-11T16:51:42.118Z,1.00
2023-06-11T16:54:09.404Z,1.00
2023-06-11T16:56:36.392Z,1.00
2023-06-11T16:59:03.315Z,1.00
2023-06-11T17:01:30.329Z,1.00
2023-06-11T17:03:57.482Z,1.00
2023-06-11T17:06:27.430Z,1.00
2023-06-11T17:08:55.232Z,1.00
2023-06-11T17:11:22.177Z,1.00
2023-06-11T17:13:49.052Z,1.00
2023-06-11T17:16:16.200Z,1.00
2023-06-11T17:18:43.884Z,1.00
2023-06-11T17:21:10.720Z,1.00
2023-06-11T17:23:37.655Z,1.00
2023-06-11T17:26:05.162Z,1.00
2023-06-11T17:28:32.042Z,1.00
2023-06-11T17:30:58.984Z,1.00
2023-06-11T17:33:26.571Z,1.00
2023-06-11T17:35:53.602Z,1.00
2023-06-11T17:38:21.368Z,1.00
2023-06-11T17:40:48.319Z,1.00
2023-06-11T17:43:15.260Z,1.00
2023-06-11T17:45:42.124Z,1.00
2023-06-11T17:48:09.326Z,1.00
2023-06-11T17:50:36.253Z,1.00
2023-06-11T17:53:03.415Z,1.00
2023-06-11T17:55:30.929Z,1.00
2023-06-11T17:57:58.042Z,1.00
2023-06-11T18:00:24.946Z,1.00
2023-06-11T18:02:52.316Z,1.00
2023-06-11T18:05:19.286Z,1.00
2023-06-11T18:07:47.251Z,1.00
2023-06-11T18:10:15.967Z,1.00
2023-06-11T18:12:44.136Z,1.00
2023-06-11T18:15:31.416Z,1.00
2023-06-11T18:18:00.082Z,1.00
2023-06-11T18:20:28.581Z,1.00
2023-06-11T18:22:56.001Z,1.00
2023-06-11T18:25:22.977Z,1.00
2023-06-11T18:27:50.205Z,1.00
2023-06-11T18:30:19.514Z,1.00
2023-06-11T18:32:46.577Z,1.00
2023-06-11T18:35:13.656Z,1.00
2023-06-11T18:37:41.597Z,1.00
2023-06-11T18:40:09.573Z,1.00
2023-06-11T18:42:37.229Z,1.00
2023-06-11T18:45:04.437Z,1.00
2023-06-11T18:47:31.334Z,1.00
2023-06-11T18:49:58.246Z,1.00
2023-06-11T18:52:25.207Z,1.00
2023-06-11T18:54:52.167Z,1.00
2023-06-11T18:57:20.896Z,1.00
2023-06-11T18:59:47.843Z,1.00
2023-06-11T19:02:14.740Z,1.00
2023-06-11T19:04:42.405Z,1.00
2023-06-11T19:07:09.680Z,1.00
2023-06-11T19:09:36.863Z,1.00
2023-06-11T19:12:03.875Z,1.00
2023-06-11T19:14:31.158Z,1.00
2023-06-11T19:16:58.178Z,1.00
2023-06-11T19:19:25.059Z,1.00
2023-06-11T19:21:51.952Z,1.00
2023-06-11T19:24:18.934Z,1.00
2023-06-11T19:26:45.797Z,1.00
2023-06-11T19:29:12.801Z,1.00
2023-06-11T19:31:40.113Z,1.00
2023-06-11T19:34:07.143Z,1.00
2023-06-11T19:36:33.997Z,1.00
2023-06-11T19:39:00.966Z,1.00
2023-06-11T19:41:30.376Z,1.00
2023-06-11T19:44:00.823Z,1.00
2023-06-11T19:46:30.842Z,1.00
2023-06-11T19:48:59.351Z,1.00
2023-06-11T19:51:26.477Z,1.00
2023-06-11T19:53:53.317Z,1.00
2023-06-11T19:56:21.076Z,1.00
2023-06-11T19:58:49.060Z,1.00
2023-06-11T20:01:17.691Z,1.00
2023-06-11T20:03:45.695Z,1.00
2023-06-11T20:06:13.688Z,1.00
2023-06-11T20:08:41.062Z,1.00
2023-06-11T20:11:12.140Z,1.00
2023-06-11T20:13:44.124Z,1.00
2023-06-11T20:16:11.800Z,1.00
2023-06-11T20:18:40.438Z,1.00
2023-06-11T20:21:07.513Z,1.00
2023-06-11T20:23:34.569Z,1.00
2023-06-11T20:26:01.607Z,1.00
2023-06-11T20:28:28.624Z,1.00
2023-06-11T20:30:56.784Z,1.00
2023-06-11T20:33:23.983Z,1.00
2023-06-11T20:35:51.589Z,1.20
2023-06-11T20:38:18.772Z,1.40
2023-06-11T20:40:46.556Z,1.50
2023-06-11T20:43:14.054Z,1.20
2023-06-11T20:45:51.229Z,1.20
2023-06-11T20:48:24.763Z,1.10
2023-06-11T20:50:51.824Z,1.90
2023-06-11T20:53:32.512Z,1.80
2023-06-11T20:56:01.424Z,2.50
2023-06-11T20:58:28.412Z,2.30
2023-06-11T21:00:55.367Z,2.00
2023-06-11T21:03:22.794Z,2.20
2023-06-11T21:05:53.887Z,2.40
2023-06-11T21:08:21.501Z,2.70
2023-06-11T21:10:48.913Z,2.60
2023-06-11T21:13:16.373Z,2.90
2023-06-11T21:15:43.430Z,2.70
2023-06-11T21:18:10.717Z,3.30
2023-06-11T21:20:39.422Z,3.20
2023-06-11T21:23:06.943Z,3.70
2023-06-11T21:25:34.061Z,4.60
2023-06-11T21:28:00.939Z,5.40
2023-06-11T21:30:27.891Z,5.70
2023-06-11T21:32:54.949Z,6.20
2023-06-11T21:35:21.792Z,6.40
2023-06-11T21:37:48.664Z,6.80
2023-06-11T21:40:16.029Z,7.10
2023-06-11T21:42:43.000Z,7.20
2023-06-11T21:45:10.290Z,7.20
2023-06-11T21:47:37.259Z,7.70
2023-06-11T21:50:06.682Z,8.40
2023-06-11T21:52:34.470Z,8.20
2023-06-11T21:55:02.897Z,9.10
2023-06-11T21:57:29.751Z,9.40
2023-06-11T21:59:56.614Z,9.10
2023-06-11T22:02:23.557Z,9.00
2023-06-11T22:04:53.630Z,10.00
2023-06-11T22:07:22.474Z,10.30
2023-06-11T22:09:49.372Z,10.60
2023-06-11T22:12:16.292Z,10.90
2023-06-11T22:14:43.192Z,11.10
2023-06-11T22:17:10.813Z,11.30
2023-06-11T22:19:39.724Z,12.20
2023-06-11T22:22:11.632Z,10.70
2023-06-11T22:24:39.356Z,10.80
2023-06-11T22:27:09.859Z,10.60
2023-06-11T22:29:36.762Z,10.60
2023-06-11T22:32:04.045Z,11.20
2023-06-11T22:34:30.950Z,12.30
2023-06-11T22:36:58.053Z,12.90
2023-06-11T22:39:24.883Z,13.40
2023-06-11T22:41:51.732Z,13.00
2023-06-11T22:44:18.608Z,12.50
2023-06-11T22:46:45.526Z,13.60
2023-06-11T22:49:12.683Z,13.60
2023-06-11T22:51:39.626Z,13.70
2023-06-11T22:54:09.435Z,14.10
2023-06-11T22:56:36.636Z,14.50
2023-06-11T22:59:03.592Z,14.60
2023-06-11T23:01:30.712Z,15.40
2023-06-11T23:03:57.652Z,15.20
2023-06-11T23:06:26.160Z,15.30
2023-06-11T23:08:52.992Z,16.10
2023-06-11T23:11:19.864Z,15.10
2023-06-11T23:13:46.910Z,14.90
2023-06-11T23:16:15.143Z,15.10
2023-06-11T23:18:43.337Z,15.00
2023-06-11T23:21:11.429Z,15.30
2023-06-11T23:23:42.524Z,16.40
2023-06-11T23:26:10.812Z,15.00
2023-06-11T23:28:38.226Z,16.10
2023-06-11T23:31:05.174Z,16.20
2023-06-11T23:33:32.136Z,15.80
2023-06-11T23:36:00.219Z,16.60
2023-06-11T23:38:27.427Z,16.80
2023-06-11T23:40:54.368Z,16.60
2023-06-11T23:43:21.296Z,16.60
2023-06-11T23:45:48.231Z,16.30
2023-06-11T23:48:15.167Z,16.10
2023-06-11T23:50:43.404Z,16.70
2023-06-11T23:53:11.438Z,17.00
2023-06-11T23:55:38.364Z,18.00
2023-06-11T23:58:14.204Z,16.50
